sensor_id;sensor_type;location;lat;lon;timestamp;P1;durP1;ratioP1;P2;durP2;ratioP2
71753;SDS011;59593;51.716;7.016;2024-01-07T00:02:12;16.47;;;11.67;;
71753;SDS011;59593;51.716;7.016;2024-01-07T00:04:37;17.37;;;12.00;;
71753;SDS011;59593;51.716;7.016;2024-01-07T00:07:04;16.13;;;12.20;;
71753;SDS011;59593;51.716;7.016;2024-01-07T00:09:30;17.40;;;12.30;;
71753;SDS011;59593;51.716;7.016;2024-01-07T00:11:56;17.70;;;12.37;;
71753;SDS011;59593;51.716;7.016;2024-01-07T00:14:21;15.87;;;11.77;;
71753;SDS011;59593;51.716;7.016;2024-01-07T00:16:47;16.37;;;11.87;;
71753;SDS011;59593;51.716;7.016;2024-01-07T00:19:13;16.60;;;11.73;;
71753;SDS011;59593;51.716;7.016;2024-01-07T00:21:38;17.03;;;12.47;;
71753;SDS011;59593;51.716;7.016;2024-01-07T00:24:04;16.57;;;11.53;;
71753;SDS011;59593;51.716;7.016;2024-01-07T00:26:30;17.23;;;12.43;;
71753;SDS011;59593;51.716;7.016;2024-01-07T00:28:55;17.33;;;11.80;;
71753;SDS011;59593;51.716;7.016;2024-01-07T00:31:21;17.70;;;12.67;;
71753;SDS011;59593;51.716;7.016;2024-01-07T00:33:46;17.67;;;12.83;;
71753;SDS011;59593;51.716;7.016;2024-01-07T00:36:12;19.20;;;13.43;;
71753;SDS011;59593;51.716;7.016;2024-01-07T00:38:37;18.90;;;13.50;;
71753;SDS011;59593;51.716;7.016;2024-01-07T00:41:03;22.10;;;14.90;;
71753;SDS011;59593;51.716;7.016;2024-01-07T00:43:29;21.90;;;15.10;;
71753;SDS011;59593;51.716;7.016;2024-01-07T00:45:55;26.33;;;16.93;;
71753;SDS011;59593;51.716;7.016;2024-01-07T00:48:20;27.23;;;16.73;;
71753;SDS011;59593;51.716;7.016;2024-01-07T00:50:46;27.37;;;17.63;;
71753;SDS011;59593;51.716;7.016;2024-01-07T00:53:12;28.13;;;17.67;;
71753;SDS011;59593;51.716;7.016;2024-01-07T00:55:37;28.37;;;18.03;;
71753;SDS011;59593;51.716;7.016;2024-01-07T00:58:03;25.93;;;16.90;;
71753;SDS011;59593;51.716;7.016;2024-01-07T01:00:28;26.87;;;16.47;;
71753;SDS011;59593;51.716;7.016;2024-01-07T01:02:54;26.43;;;16.90;;
71753;SDS011;59593;51.716;7.016;2024-01-07T01:05:20;26.30;;;17.87;;
71753;SDS011;59593;51.716;7.016;2024-01-07T01:07:46;24.53;;;16.47;;
71753;SDS011;59593;51.716;7.016;2024-01-07T01:10:11;23.83;;;16.63;;
71753;SDS011;59593;51.716;7.016;2024-01-07T01:12:38;27.07;;;17.27;;
71753;SDS011;59593;51.716;7.016;2024-01-07T01:15:03;25.57;;;16.40;;
71753;SDS011;59593;51.716;7.016;2024-01-07T01:17:30;24.97;;;16.70;;
71753;SDS011;59593;51.716;7.016;2024-01-07T01:19:56;25.67;;;16.67;;
71753;SDS011;59593;51.716;7.016;2024-01-07T01:22:21;26.30;;;17.17;;
71753;SDS011;59593;51.716;7.016;2024-01-07T01:24:47;23.57;;;16.13;;
71753;SDS011;59593;51.716;7.016;2024-01-07T01:27:14;25.07;;;16.60;;
71753;SDS011;59593;51.716;7.016;2024-01-07T01:29:40;26.10;;;16.67;;
71753;SDS011;59593;51.716;7.016;2024-01-07T01:32:06;23.70;;;17.00;;
71753;SDS011;59593;51.716;7.016;2024-01-07T01:34:32;24.80;;;16.93;;
71753;SDS011;59593;51.716;7.016;2024-01-07T01:36:57;26.80;;;17.93;;
71753;SDS011;59593;51.716;7.016;2024-01-07T01:39:23;25.17;;;16.97;;
71753;SDS011;59593;51.716;7.016;2024-01-07T01:41:48;23.33;;;16.43;;
71753;SDS011;59593;51.716;7.016;2024-01-07T01:44:14;24.20;;;16.23;;
71753;SDS011;59593;51.716;7.016;2024-01-07T01:46:40;26.33;;;17.20;;
71753;SDS011;59593;51.716;7.016;2024-01-07T01:49:06;26.20;;;17.70;;
71753;SDS011;59593;51.716;7.016;2024-01-07T01:51:32;25.33;;;17.43;;
71753;SDS011;59593;51.716;7.016;2024-01-07T01:53:58;23.00;;;16.07;;
71753;SDS011;59593;51.716;7.016;2024-01-07T01:56:25;24.70;;;16.83;;
71753;SDS011;59593;51.716;7.016;2024-01-07T01:58:53;24.27;;;15.97;;
71753;SDS011;59593;51.716;7.016;2024-01-07T02:01:19;23.50;;;15.60;;
71753;SDS011;59593;51.716;7.016;2024-01-07T02:03:45;23.07;;;14.97;;
71753;SDS011;59593;51.716;7.016;2024-01-07T02:06:11;19.33;;;14.37;;
71753;SDS011;59593;51.716;7.016;2024-01-07T02:08:38;21.17;;;15.13;;
71753;SDS011;59593;51.716;7.016;2024-01-07T02:11:14;22.33;;;15.07;;
71753;SDS011;59593;51.716;7.016;2024-01-07T02:13:47;20.43;;;14.27;;
71753;SDS011;59593;51.716;7.016;2024-01-07T02:16:13;19.23;;;13.83;;
71753;SDS011;59593;51.716;7.016;2024-01-07T02:18:42;19.87;;;13.97;;
71753;SDS011;59593;51.716;7.016;2024-01-07T02:21:09;19.53;;;13.40;;
71753;SDS011;59593;51.716;7.016;2024-01-07T02:23:35;19.60;;;13.97;;
71753;SDS011;59593;51.716;7.016;2024-01-07T02:26:01;19.37;;;13.80;;
71753;SDS011;59593;51.716;7.016;2024-01-07T02:28:26;19.93;;;14.30;;
71753;SDS011;59593;51.716;7.016;2024-01-07T02:30:52;20.23;;;14.17;;
71753;SDS011;59593;51.716;7.016;2024-01-07T02:33:18;22.07;;;15.40;;
71753;SDS011;59593;51.716;7.016;2024-01-07T02:35:43;21.80;;;15.23;;
71753;SDS011;59593;51.716;7.016;2024-01-07T02:38:09;23.37;;;16.07;;
71753;SDS011;59593;51.716;7.016;2024-01-07T02:40:34;21.20;;;15.03;;
71753;SDS011;59593;51.716;7.016;2024-01-07T02:43:00;19.07;;;14.13;;
71753;SDS011;59593;51.716;7.016;2024-01-07T02:45:26;20.83;;;14.43;;
71753;SDS011;59593;51.716;7.016;2024-01-07T02:47:51;17.00;;;13.27;;
71753;SDS011;59593;51.716;7.016;2024-01-07T02:50:17;16.50;;;12.63;;
71753;SDS011;59593;51.716;7.016;2024-01-07T02:52:42;14.23;;;11.37;;
71753;SDS011;59593;51.716;7.016;2024-01-07T02:55:08;15.67;;;12.23;;
71753;SDS011;59593;51.716;7.016;2024-01-07T02:57:34;14.10;;;10.93;;
71753;SDS011;59593;51.716;7.016;2024-01-07T02:59:59;15.10;;;11.33;;
71753;SDS011;59593;51.716;7.016;2024-01-07T03:02:25;15.70;;;11.20;;
71753;SDS011;59593;51.716;7.016;2024-01-07T03:04:50;13.50;;;10.63;;
71753;SDS011;59593;51.716;7.016;2024-01-07T03:07:16;12.57;;;10.10;;
71753;SDS011;59593;51.716;7.016;2024-01-07T03:09:42;13.37;;;10.67;;
71753;SDS011;59593;51.716;7.016;2024-01-07T03:12:08;13.53;;;10.47;;
71753;SDS011;59593;51.716;7.016;2024-01-07T03:14:33;13.30;;;10.10;;
71753;SDS011;59593;51.716;7.016;2024-01-07T03:16:59;13.33;;;10.33;;
71753;SDS011;59593;51.716;7.016;2024-01-07T03:19:24;13.87;;;10.97;;
71753;SDS011;59593;51.716;7.016;2024-01-07T03:21:50;13.17;;;9.97;;
71753;SDS011;59593;51.716;7.016;2024-01-07T03:24:16;14.93;;;10.87;;
71753;SDS011;59593;51.716;7.016;2024-01-07T03:26:41;13.97;;;11.40;;
71753;SDS011;59593;51.716;7.016;2024-01-07T03:29:07;13.70;;;10.90;;
71753;SDS011;59593;51.716;7.016;2024-01-07T03:31:32;14.20;;;11.93;;
71753;SDS011;59593;51.716;7.016;2024-01-07T03:33:58;15.37;;;12.07;;
71753;SDS011;59593;51.716;7.016;2024-01-07T03:36:23;14.33;;;11.60;;
71753;SDS011;59593;51.716;7.016;2024-01-07T03:38:49;15.30;;;11.30;;
71753;SDS011;59593;51.716;7.016;2024-01-07T03:41:15;14.90;;;10.97;;
71753;SDS011;59593;51.716;7.016;2024-01-07T03:43:43;16.30;;;11.57;;
71753;SDS011;59593;51.716;7.016;2024-01-07T03:46:09;13.60;;;11.37;;
71753;SDS011;59593;51.716;7.016;2024-01-07T03:48:34;16.97;;;11.80;;
71753;SDS011;59593;51.716;7.016;2024-01-07T03:51:00;16.00;;;12.23;;
71753;SDS011;59593;51.716;7.016;2024-01-07T03:53:25;16.43;;;12.00;;
71753;SDS011;59593;51.716;7.016;2024-01-07T03:55:51;17.07;;;12.30;;
71753;SDS011;59593;51.716;7.016;2024-01-07T03:58:16;16.83;;;12.13;;
71753;SDS011;59593;51.716;7.016;2024-01-07T04:00:42;16.73;;;12.13;;
71753;SDS011;59593;51.716;7.016;2024-01-07T04:03:07;16.90;;;12.37;;
71753;SDS011;59593;51.716;7.016;2024-01-07T04:05:33;15.23;;;11.73;;
71753;SDS011;59593;51.716;7.016;2024-01-07T04:08:02;14.33;;;11.27;;
71753;SDS011;59593;51.716;7.016;2024-01-07T04:10:28;15.57;;;11.33;;
71753;SDS011;59593;51.716;7.016;2024-01-07T04:12:53;14.50;;;11.33;;
71753;SDS011;59593;51.716;7.016;2024-01-07T04:15:19;15.07;;;10.93;;
71753;SDS011;59593;51.716;7.016;2024-01-07T04:17:46;13.33;;;10.23;;
71753;SDS011;59593;51.716;7.016;2024-01-07T04:20:14;14.27;;;10.00;;
71753;SDS011;59593;51.716;7.016;2024-01-07T04:22:40;13.30;;;10.23;;
71753;SDS011;59593;51.716;7.016;2024-01-07T04:25:05;13.40;;;10.27;;
71753;SDS011;59593;51.716;7.016;2024-01-07T04:27:33;14.07;;;10.40;;
71753;SDS011;59593;51.716;7.016;2024-01-07T04:30:02;14.07;;;10.17;;
71753;SDS011;59593;51.716;7.016;2024-01-07T04:32:29;14.07;;;10.00;;
71753;SDS011;59593;51.716;7.016;2024-01-07T04:34:54;12.93;;;10.00;;
71753;SDS011;59593;51.716;7.016;2024-01-07T04:37:22;14.13;;;10.27;;
71753;SDS011;59593;51.716;7.016;2024-01-07T04:39:47;13.40;;;10.20;;
71753;SDS011;59593;51.716;7.016;2024-01-07T04:42:13;14.30;;;10.77;;
71753;SDS011;59593;51.716;7.016;2024-01-07T04:44:38;17.53;;;10.93;;
71753;SDS011;59593;51.716;7.016;2024-01-07T04:47:04;15.10;;;9.93;;
71753;SDS011;59593;51.716;7.016;2024-01-07T04:49:30;13.00;;;10.00;;
71753;SDS011;59593;51.716;7.016;2024-01-07T04:51:55;13.53;;;10.33;;
71753;SDS011;59593;51.716;7.016;2024-01-07T04:54:21;15.10;;;11.30;;
71753;SDS011;59593;51.716;7.016;2024-01-07T04:56:46;14.63;;;10.87;;
71753;SDS011;59593;51.716;7.016;2024-01-07T04:59:12;15.43;;;11.50;;
71753;SDS011;59593;51.716;7.016;2024-01-07T05:01:37;17.90;;;12.60;;
71753;SDS011;59593;51.716;7.016;2024-01-07T05:04:03;15.77;;;12.00;;
71753;SDS011;59593;51.716;7.016;2024-01-07T05:06:28;18.30;;;12.93;;
71753;SDS011;59593;51.716;7.016;2024-01-07T05:08:54;18.90;;;12.63;;
71753;SDS011;59593;51.716;7.016;2024-01-07T05:11:20;17.77;;;13.10;;
71753;SDS011;59593;51.716;7.016;2024-01-07T05:13:45;18.80;;;12.90;;
71753;SDS011;59593;51.716;7.016;2024-01-07T05:16:18;21.03;;;13.40;;
71753;SDS011;59593;51.716;7.016;2024-01-07T05:18:44;18.63;;;12.80;;
71753;SDS011;59593;51.716;7.016;2024-01-07T05:21:13;21.07;;;14.33;;
71753;SDS011;59593;51.716;7.016;2024-01-07T05:23:40;20.53;;;14.10;;
71753;SDS011;59593;51.716;7.016;2024-01-07T05:26:05;18.60;;;13.77;;
71753;SDS011;59593;51.716;7.016;2024-01-07T05:28:31;20.37;;;14.30;;
71753;SDS011;59593;51.716;7.016;2024-01-07T05:30:56;19.13;;;14.20;;
71753;SDS011;59593;51.716;7.016;2024-01-07T05:33:22;19.90;;;13.60;;
71753;SDS011;59593;51.716;7.016;2024-01-07T05:35:48;20.27;;;14.27;;
71753;SDS011;59593;51.716;7.016;2024-01-07T05:38:13;18.20;;;13.53;;
71753;SDS011;59593;51.716;7.016;2024-01-07T05:40:39;20.63;;;14.33;;
71753;SDS011;59593;51.716;7.016;2024-01-07T05:43:04;18.97;;;13.70;;
71753;SDS011;59593;51.716;7.016;2024-01-07T05:45:30;18.87;;;13.83;;
71753;SDS011;59593;51.716;7.016;2024-01-07T05:47:55;21.40;;;14.40;;
71753;SDS011;59593;51.716;7.016;2024-01-07T05:50:21;18.47;;;13.67;;
71753;SDS011;59593;51.716;7.016;2024-01-07T05:52:47;17.43;;;13.07;;
71753;SDS011;59593;51.716;7.016;2024-01-07T05:55:13;18.73;;;13.60;;
71753;SDS011;59593;51.716;7.016;2024-01-07T05:57:38;18.13;;;12.97;;
71753;SDS011;59593;51.716;7.016;2024-01-07T06:00:04;18.87;;;13.03;;
71753;SDS011;59593;51.716;7.016;2024-01-07T06:02:30;19.60;;;13.43;;
71753;SDS011;59593;51.716;7.016;2024-01-07T06:04:55;18.47;;;12.43;;
71753;SDS011;59593;51.716;7.016;2024-01-07T06:07:21;18.80;;;13.50;;
71753;SDS011;59593;51.716;7.016;2024-01-07T06:09:46;17.93;;;12.70;;
71753;SDS011;59593;51.716;7.016;2024-01-07T06:12:13;19.90;;;13.13;;
71753;SDS011;59593;51.716;7.016;2024-01-07T06:14:39;19.50;;;13.73;;
71753;SDS011;59593;51.716;7.016;2024-01-07T06:17:04;17.37;;;11.53;;
71753;SDS011;59593;51.716;7.016;2024-01-07T06:19:30;17.60;;;12.63;;
71753;SDS011;59593;51.716;7.016;2024-01-07T06:21:56;16.87;;;11.80;;
71753;SDS011;59593;51.716;7.016;2024-01-07T06:24:21;16.50;;;11.27;;
71753;SDS011;59593;51.716;7.016;2024-01-07T06:26:47;16.73;;;12.37;;
71753;SDS011;59593;51.716;7.016;2024-01-07T06:29:12;15.90;;;11.63;;
71753;SDS011;59593;51.716;7.016;2024-01-07T06:31:44;15.70;;;11.23;;
71753;SDS011;59593;51.716;7.016;2024-01-07T06:34:10;15.70;;;11.40;;
71753;SDS011;59593;51.716;7.016;2024-01-07T06:36:38;14.90;;;11.27;;
71753;SDS011;59593;51.716;7.016;2024-01-07T06:39:04;15.30;;;10.90;;
71753;SDS011;59593;51.716;7.016;2024-01-07T06:41:30;15.20;;;11.50;;
71753;SDS011;59593;51.716;7.016;2024-01-07T06:43:55;14.43;;;10.90;;
71753;SDS011;59593;51.716;7.016;2024-01-07T06:46:22;14.83;;;11.27;;
71753;SDS011;59593;51.716;7.016;2024-01-07T06:48:47;14.80;;;10.90;;
71753;SDS011;59593;51.716;7.016;2024-01-07T06:51:13;15.10;;;11.27;;
71753;SDS011;59593;51.716;7.016;2024-01-07T06:53:40;16.20;;;11.70;;
71753;SDS011;59593;51.716;7.016;2024-01-07T06:56:05;15.23;;;11.53;;
71753;SDS011;59593;51.716;7.016;2024-01-07T06:58:31;13.67;;;10.53;;
71753;SDS011;59593;51.716;7.016;2024-01-07T07:00:57;17.03;;;10.60;;
71753;SDS011;59593;51.716;7.016;2024-01-07T07:03:23;14.40;;;11.37;;
71753;SDS011;59593;51.716;7.016;2024-01-07T07:05:48;15.27;;;10.80;;
71753;SDS011;59593;51.716;7.016;2024-01-07T07:08:14;15.63;;;10.93;;
71753;SDS011;59593;51.716;7.016;2024-01-07T07:10:40;15.67;;;10.87;;
71753;SDS011;59593;51.716;7.016;2024-01-07T07:13:05;15.63;;;11.23;;
71753;SDS011;59593;51.716;7.016;2024-01-07T07:15:31;13.63;;;10.70;;
71753;SDS011;59593;51.716;7.016;2024-01-07T07:17:57;16.07;;;12.00;;
71753;SDS011;59593;51.716;7.016;2024-01-07T07:20:22;16.27;;;11.03;;
71753;SDS011;59593;51.716;7.016;2024-01-07T07:22:48;15.53;;;11.37;;
71753;SDS011;59593;51.716;7.016;2024-01-07T07:25:14;13.23;;;10.53;;
71753;SDS011;59593;51.716;7.016;2024-01-07T07:27:39;14.77;;;11.30;;
71753;SDS011;59593;51.716;7.016;2024-01-07T07:30:05;14.60;;;11.17;;
71753;SDS011;59593;51.716;7.016;2024-01-07T07:32:31;16.37;;;11.47;;
71753;SDS011;59593;51.716;7.016;2024-01-07T07:34:57;16.07;;;11.63;;
71753;SDS011;59593;51.716;7.016;2024-01-07T07:37:22;15.93;;;11.43;;
71753;SDS011;59593;51.716;7.016;2024-01-07T07:39:48;17.33;;;11.53;;
71753;SDS011;59593;51.716;7.016;2024-01-07T07:42:14;15.13;;;11.83;;
71753;SDS011;59593;51.716;7.016;2024-01-07T07:44:41;15.47;;;11.47;;
71753;SDS011;59593;51.716;7.016;2024-01-07T07:47:06;14.63;;;11.53;;
71753;SDS011;59593;51.716;7.016;2024-01-07T07:49:32;16.13;;;11.50;;
71753;SDS011;59593;51.716;7.016;2024-01-07T07:51:59;17.30;;;11.67;;
71753;SDS011;59593;51.716;7.016;2024-01-07T07:54:25;16.77;;;12.17;;
71753;SDS011;59593;51.716;7.016;2024-01-07T07:56:51;14.87;;;11.13;;
71753;SDS011;59593;51.716;7.016;2024-01-07T07:59:16;12.47;;;9.80;;
71753;SDS011;59593;51.716;7.016;2024-01-07T08:01:42;14.80;;;10.23;;
71753;SDS011;59593;51.716;7.016;2024-01-07T08:04:08;13.90;;;9.97;;
71753;SDS011;59593;51.716;7.016;2024-01-07T08:06:35;12.83;;;9.57;;
71753;SDS011;59593;51.716;7.016;2024-01-07T08:09:00;11.50;;;9.43;;
71753;SDS011;59593;51.716;7.016;2024-01-07T08:11:26;12.97;;;9.43;;
71753;SDS011;59593;51.716;7.016;2024-01-07T08:13:51;12.67;;;9.57;;
71753;SDS011;59593;51.716;7.016;2024-01-07T08:16:17;13.57;;;10.00;;
71753;SDS011;59593;51.716;7.016;2024-01-07T08:18:43;13.43;;;9.57;;
71753;SDS011;59593;51.716;7.016;2024-01-07T08:21:09;13.43;;;9.60;;
71753;SDS011;59593;51.716;7.016;2024-01-07T08:23:35;12.20;;;9.10;;
71753;SDS011;59593;51.716;7.016;2024-01-07T08:26:01;13.27;;;9.20;;
71753;SDS011;59593;51.716;7.016;2024-01-07T08:28:28;10.60;;;8.83;;
71753;SDS011;59593;51.716;7.016;2024-01-07T08:30:54;11.57;;;8.80;;
71753;SDS011;59593;51.716;7.016;2024-01-07T08:33:21;13.20;;;9.00;;
71753;SDS011;59593;51.716;7.016;2024-01-07T08:35:46;11.23;;;9.17;;
71753;SDS011;59593;51.716;7.016;2024-01-07T08:38:12;10.83;;;8.70;;
71753;SDS011;59593;51.716;7.016;2024-01-07T08:40:38;11.97;;;8.97;;
71753;SDS011;59593;51.716;7.016;2024-01-07T08:43:04;10.63;;;8.50;;
71753;SDS011;59593;51.716;7.016;2024-01-07T08:45:30;10.97;;;8.73;;
71753;SDS011;59593;51.716;7.016;2024-01-07T08:47:55;11.67;;;8.17;;
71753;SDS011;59593;51.716;7.016;2024-01-07T08:50:21;10.03;;;8.20;;
71753;SDS011;59593;51.716;7.016;2024-01-07T08:52:46;11.10;;;8.33;;
71753;SDS011;59593;51.716;7.016;2024-01-07T08:55:12;10.60;;;8.43;;
71753;SDS011;59593;51.716;7.016;2024-01-07T08:57:38;10.00;;;7.77;;
71753;SDS011;59593;51.716;7.016;2024-01-07T09:00:05;12.83;;;8.17;;
71753;SDS011;59593;51.716;7.016;2024-01-07T09:02:32;10.60;;;7.13;;
71753;SDS011;59593;51.716;7.016;2024-01-07T09:04:58;9.00;;;7.03;;
71753;SDS011;59593;51.716;7.016;2024-01-07T09:07:24;8.73;;;7.03;;
71753;SDS011;59593;51.716;7.016;2024-01-07T09:09:49;8.80;;;6.10;;
71753;SDS011;59593;51.716;7.016;2024-01-07T09:12:16;8.40;;;6.37;;
71753;SDS011;59593;51.716;7.016;2024-01-07T09:14:42;8.30;;;6.33;;
71753;SDS011;59593;51.716;7.016;2024-01-07T09:17:07;9.77;;;6.80;;
71753;SDS011;59593;51.716;7.016;2024-01-07T09:19:33;9.57;;;6.30;;
71753;SDS011;59593;51.716;7.016;2024-01-07T09:21:59;10.43;;;7.03;;
71753;SDS011;59593;51.716;7.016;2024-01-07T09:24:24;9.37;;;6.90;;
71753;SDS011;59593;51.716;7.016;2024-01-07T09:26:50;9.67;;;6.67;;
71753;SDS011;59593;51.716;7.016;2024-01-07T09:29:16;9.17;;;7.07;;
71753;SDS011;59593;51.716;7.016;2024-01-07T09:31:42;10.03;;;7.47;;
71753;SDS011;59593;51.716;7.016;2024-01-07T09:34:08;9.10;;;7.63;;
71753;SDS011;59593;51.716;7.016;2024-01-07T09:36:33;9.10;;;7.23;;
71753;SDS011;59593;51.716;7.016;2024-01-07T09:39:00;11.67;;;7.70;;
71753;SDS011;59593;51.716;7.016;2024-01-07T09:41:26;11.10;;;6.80;;
71753;SDS011;59593;51.716;7.016;2024-01-07T09:43:52;8.60;;;6.50;;
71753;SDS011;59593;51.716;7.016;2024-01-07T09:46:18;9.20;;;6.63;;
71753;SDS011;59593;51.716;7.016;2024-01-07T09:48:44;9.40;;;6.53;;
71753;SDS011;59593;51.716;7.016;2024-01-07T09:51:09;9.70;;;6.40;;
71753;SDS011;59593;51.716;7.016;2024-01-07T09:53:37;8.90;;;6.53;;
71753;SDS011;59593;51.716;7.016;2024-01-07T09:58:52;9.00;;;6.50;;
71753;SDS011;59593;51.716;7.016;2024-01-07T10:01:18;8.63;;;6.13;;
71753;SDS011;59593;51.716;7.016;2024-01-07T10:03:44;8.87;;;6.10;;
71753;SDS011;59593;51.716;7.016;2024-01-07T10:06:10;9.90;;;6.53;;
71753;SDS011;59593;51.716;7.016;2024-01-07T10:08:37;10.27;;;6.10;;
71753;SDS011;59593;51.716;7.016;2024-01-07T10:11:02;9.03;;;6.07;;
71753;SDS011;59593;51.716;7.016;2024-01-07T10:13:29;9.03;;;6.00;;
71753;SDS011;59593;51.716;7.016;2024-01-07T10:15:56;8.17;;;5.63;;
71753;SDS011;59593;51.716;7.016;2024-01-07T10:18:21;9.47;;;5.73;;
71753;SDS011;59593;51.716;7.016;2024-01-07T10:20:47;14.47;;;11.17;;
71753;SDS011;59593;51.716;7.016;2024-01-07T10:23:13;8.77;;;6.47;;
71753;SDS011;59593;51.716;7.016;2024-01-07T10:25:44;10.57;;;7.20;;
71753;SDS011;59593;51.716;7.016;2024-01-07T10:28:10;8.97;;;6.13;;
71753;SDS011;59593;51.716;7.016;2024-01-07T10:30:38;14.47;;;8.40;;
71753;SDS011;59593;51.716;7.016;2024-01-07T10:33:05;7.30;;;4.93;;
71753;SDS011;59593;51.716;7.016;2024-01-07T10:35:33;8.30;;;4.63;;
71753;SDS011;59593;51.716;7.016;2024-01-07T10:37:59;7.03;;;5.43;;
71753;SDS011;59593;51.716;7.016;2024-01-07T10:40:26;7.90;;;5.53;;
71753;SDS011;59593;51.716;7.016;2024-01-07T10:42:53;7.87;;;5.77;;
71753;SDS011;59593;51.716;7.016;2024-01-07T10:45:20;7.60;;;5.60;;
71753;SDS011;59593;51.716;7.016;2024-01-07T10:47:49;10.80;;;6.20;;
71753;SDS011;59593;51.716;7.016;2024-01-07T10:50:19;8.67;;;5.80;;
71753;SDS011;59593;51.716;7.016;2024-01-07T10:52:48;6.37;;;4.50;;
71753;SDS011;59593;51.716;7.016;2024-01-07T10:55:17;8.07;;;5.37;;
71753;SDS011;59593;51.716;7.016;2024-01-07T10:57:44;5.97;;;4.50;;
71753;SDS011;59593;51.716;7.016;2024-01-07T11:00:15;7.70;;;4.67;;
71753;SDS011;59593;51.716;7.016;2024-01-07T11:08:00;5.17;;;4.20;;
71753;SDS011;59593;51.716;7.016;2024-01-07T11:10:43;4.43;;;3.30;;
71753;SDS011;59593;51.716;7.016;2024-01-07T11:13:31;4.90;;;3.67;;
71753;SDS011;59593;51.716;7.016;2024-01-07T11:15:58;7.47;;;4.17;;
71753;SDS011;59593;51.716;7.016;2024-01-07T11:18:23;4.67;;;3.60;;
71753;SDS011;59593;51.716;7.016;2024-01-07T11:20:57;5.37;;;4.10;;
71753;SDS011;59593;51.716;7.016;2024-01-07T11:23:28;5.77;;;4.40;;
71753;SDS011;59593;51.716;7.016;2024-01-07T11:25:58;6.40;;;4.07;;
71753;SDS011;59593;51.716;7.016;2024-01-07T11:28:46;5.47;;;3.63;;
71753;SDS011;59593;51.716;7.016;2024-01-07T11:31:21;5.67;;;3.63;;
71753;SDS011;59593;51.716;7.016;2024-01-07T11:34:07;4.97;;;3.60;;
71753;SDS011;59593;51.716;7.016;2024-01-07T11:36:36;4.60;;;3.10;;
71753;SDS011;59593;51.716;7.016;2024-01-07T11:39:03;4.37;;;3.20;;
71753;SDS011;59593;51.716;7.016;2024-01-07T11:41:34;5.47;;;3.53;;
71753;SDS011;59593;51.716;7.016;2024-01-07T11:44:01;5.00;;;2.80;;
71753;SDS011;59593;51.716;7.016;2024-01-07T11:46:29;4.77;;;3.47;;
71753;SDS011;59593;51.716;7.016;2024-01-07T11:48:58;8.23;;;4.50;;
71753;SDS011;59593;51.716;7.016;2024-01-07T11:51:27;6.17;;;4.23;;
71753;SDS011;59593;51.716;7.016;2024-01-07T11:53:54;5.63;;;3.80;;
71753;SDS011;59593;51.716;7.016;2024-01-07T11:56:19;5.80;;;3.60;;
71753;SDS011;59593;51.716;7.016;2024-01-07T11:58:45;4.80;;;3.23;;
71753;SDS011;59593;51.716;7.016;2024-01-07T12:01:11;4.30;;;2.97;;
71753;SDS011;59593;51.716;7.016;2024-01-07T12:03:39;5.87;;;3.47;;
71753;SDS011;59593;51.716;7.016;2024-01-07T12:06:06;4.73;;;3.60;;
71753;SDS011;59593;51.716;7.016;2024-01-07T12:08:32;4.60;;;3.17;;
71753;SDS011;59593;51.716;7.016;2024-01-07T12:10:58;4.00;;;3.00;;
71753;SDS011;59593;51.716;7.016;2024-01-07T12:13:24;4.80;;;3.60;;
71753;SDS011;59593;51.716;7.016;2024-01-07T12:15:51;3.70;;;2.80;;
71753;SDS011;59593;51.716;7.016;2024-01-07T12:18:17;8.03;;;3.57;;
71753;SDS011;59593;51.716;7.016;2024-01-07T12:20:54;6.90;;;3.53;;
71753;SDS011;59593;51.716;7.016;2024-01-07T12:23:20;5.57;;;3.90;;
71753;SDS011;59593;51.716;7.016;2024-01-07T12:25:45;5.07;;;3.33;;
71753;SDS011;59593;51.716;7.016;2024-01-07T12:28:11;4.30;;;2.90;;
71753;SDS011;59593;51.716;7.016;2024-01-07T12:30:37;4.67;;;3.20;;
71753;SDS011;59593;51.716;7.016;2024-01-07T12:33:04;3.77;;;3.00;;
71753;SDS011;59593;51.716;7.016;2024-01-07T12:35:30;6.23;;;2.90;;
71753;SDS011;59593;51.716;7.016;2024-01-07T12:37:56;4.50;;;3.10;;
71753;SDS011;59593;51.716;7.016;2024-01-07T12:40:24;5.10;;;3.57;;
71753;SDS011;59593;51.716;7.016;2024-01-07T12:42:52;4.90;;;3.73;;
71753;SDS011;59593;51.716;7.016;2024-01-07T12:45:17;3.27;;;2.93;;
71753;SDS011;59593;51.716;7.016;2024-01-07T12:47:43;4.37;;;2.97;;
71753;SDS011;59593;51.716;7.016;2024-01-07T12:50:09;4.07;;;2.83;;
71753;SDS011;59593;51.716;7.016;2024-01-07T12:52:38;5.03;;;3.40;;
71753;SDS011;59593;51.716;7.016;2024-01-07T12:55:05;5.13;;;3.20;;
71753;SDS011;59593;51.716;7.016;2024-01-07T12:57:32;4.80;;;3.40;;
71753;SDS011;59593;51.716;7.016;2024-01-07T12:59:58;4.87;;;3.27;;
71753;SDS011;59593;51.716;7.016;2024-01-07T13:02:23;3.53;;;2.80;;
71753;SDS011;59593;51.716;7.016;2024-01-07T13:04:49;5.23;;;3.10;;
71753;SDS011;59593;51.716;7.016;2024-01-07T13:07:15;3.53;;;2.70;;
71753;SDS011;59593;51.716;7.016;2024-01-07T13:09:41;3.40;;;2.60;;
71753;SDS011;59593;51.716;7.016;2024-01-07T13:12:09;3.63;;;2.60;;
71753;SDS011;59593;51.716;7.016;2024-01-07T13:14:35;3.10;;;2.40;;
71753;SDS011;59593;51.716;7.016;2024-01-07T13:17:00;3.40;;;2.80;;
71753;SDS011;59593;51.716;7.016;2024-01-07T13:19:26;4.93;;;3.00;;
71753;SDS011;59593;51.716;7.016;2024-01-07T13:21:52;5.07;;;2.60;;
71753;SDS011;59593;51.716;7.016;2024-01-07T13:24:20;5.43;;;3.37;;
71753;SDS011;59593;51.716;7.016;2024-01-07T13:26:46;4.73;;;3.50;;
71753;SDS011;59593;51.716;7.016;2024-01-07T13:29:12;4.90;;;3.50;;
71753;SDS011;59593;51.716;7.016;2024-01-07T13:31:38;4.10;;;2.90;;
71753;SDS011;59593;51.716;7.016;2024-01-07T13:34:03;3.37;;;2.80;;
71753;SDS011;59593;51.716;7.016;2024-01-07T13:36:29;3.50;;;2.73;;
71753;SDS011;59593;51.716;7.016;2024-01-07T13:38:54;3.17;;;2.70;;
71753;SDS011;59593;51.716;7.016;2024-01-07T13:41:20;6.63;;;3.73;;
71753;SDS011;59593;51.716;7.016;2024-01-07T13:43:45;5.10;;;3.20;;
71753;SDS011;59593;51.716;7.016;2024-01-07T13:46:11;3.40;;;2.70;;
71753;SDS011;59593;51.716;7.016;2024-01-07T13:48:36;5.53;;;3.00;;
71753;SDS011;59593;51.716;7.016;2024-01-07T13:51:04;9.43;;;3.67;;
71753;SDS011;59593;51.716;7.016;2024-01-07T13:53:30;6.50;;;3.73;;
71753;SDS011;59593;51.716;7.016;2024-01-07T13:55:56;2.90;;;2.60;;
71753;SDS011;59593;51.716;7.016;2024-01-07T13:58:22;4.77;;;2.80;;
71753;SDS011;59593;51.716;7.016;2024-01-07T14:00:48;4.20;;;3.20;;
71753;SDS011;59593;51.716;7.016;2024-01-07T14:03:14;6.00;;;3.40;;
71753;SDS011;59593;51.716;7.016;2024-01-07T14:05:39;3.80;;;2.57;;
71753;SDS011;59593;51.716;7.016;2024-01-07T14:08:06;3.60;;;2.50;;
71753;SDS011;59593;51.716;7.016;2024-01-07T14:10:31;3.67;;;2.20;;
71753;SDS011;59593;51.716;7.016;2024-01-07T14:12:57;4.00;;;2.47;;
71753;SDS011;59593;51.716;7.016;2024-01-07T14:15:23;3.73;;;2.47;;
71753;SDS011;59593;51.716;7.016;2024-01-07T14:17:48;3.77;;;2.40;;
71753;SDS011;59593;51.716;7.016;2024-01-07T14:20:14;3.00;;;2.20;;
71753;SDS011;59593;51.716;7.016;2024-01-07T14:22:39;3.47;;;2.60;;
71753;SDS011;59593;51.716;7.016;2024-01-07T14:25:05;3.07;;;2.50;;
71753;SDS011;59593;51.716;7.016;2024-01-07T14:27:31;2.83;;;2.00;;
71753;SDS011;59593;51.716;7.016;2024-01-07T14:29:57;2.77;;;2.10;;
71753;SDS011;59593;51.716;7.016;2024-01-07T14:32:23;4.87;;;2.60;;
71753;SDS011;59593;51.716;7.016;2024-01-07T14:34:49;3.27;;;2.43;;